createdAt,value
2022-12-17T00:02:36.764Z,99418.38
2022-12-17T00:05:27.096Z,99428.06
2022-12-17T00:08:18.691Z,99429.09
2022-12-17T00:11:09.165Z,99433.94
2022-12-17T00:14:00.000Z,99437.28
2022-12-17T00:16:49.889Z,99443.03
2022-12-17T00:19:39.749Z,99436.75
2022-12-17T00:22:29.900Z,99442.69
2022-12-17T00:25:19.907Z,99453.22
2022-12-17T00:28:09.915Z,99445.34
2022-12-17T00:31:01.247Z,99446.19
2022-12-17T00:33:54.373Z,99446.66
2022-12-17T00:36:46.784Z,99448.56
2022-12-17T00:39:36.714Z,99445.50
2022-12-17T00:42:26.789Z,99457.72
2022-12-17T00:45:17.140Z,99454.19
2022-12-17T00:48:10.267Z,99463.34
2022-12-17T00:51:00.634Z,99464.03
2022-12-17T00:53:50.889Z,99469.00
2022-12-17T00:56:41.049Z,99476.34
2022-12-17T00:59:31.174Z,99483.34
2022-12-17T01:02:23.133Z,99493.16
2022-12-17T01:05:13.502Z,99492.97
2022-12-17T01:08:03.837Z,99495.72
2022-12-17T01:10:54.069Z,99491.66
2022-12-17T01:13:46.461Z,99507.28
2022-12-17T01:16:38.300Z,99503.22
2022-12-17T01:19:28.421Z,99507.63
2022-12-17T01:22:18.515Z,99513.22
2022-12-17T01:25:08.979Z,99530.31
2022-12-17T01:27:59.676Z,99530.06
2022-12-17T01:30:50.397Z,99525.88
2022-12-17T01:33:40.624Z,99525.72
2022-12-17T01:36:30.797Z,99526.06
2022-12-17T01:39:20.953Z,99532.91
2022-12-17T01:42:10.885Z,99535.97
2022-12-17T01:45:10.941Z,99538.69
2022-12-17T01:48:06.383Z,99544.50
2022-12-17T01:51:02.223Z,99542.56
2022-12-17T01:54:12.216Z,99551.72
2022-12-17T01:57:02.482Z,99548.41
2022-12-17T02:00:08.743Z,99552.31
2022-12-17T02:03:05.709Z,99555.75
2022-12-17T02:06:00.314Z,99560.34
2022-12-17T02:08:59.712Z,99558.59
2022-12-17T02:12:14.212Z,99566.19
2022-12-17T02:15:26.337Z,99567.94
2022-12-17T02:18:20.817Z,99574.31
2022-12-17T02:21:13.562Z,99575.09
2022-12-17T02:24:18.991Z,99579.69
2022-12-17T02:27:13.617Z,99579.03
2022-12-17T02:30:12.045Z,99578.00
2022-12-17T02:33:05.531Z,99582.19
2022-12-17T02:36:07.137Z,99584.53
2022-12-17T02:38:57.285Z,99586.81
2022-12-17T02:42:19.364Z,99581.69
2022-12-17T02:45:10.918Z,99586.88
2022-12-17T02:48:03.641Z,99578.28
2022-12-17T02:50:54.794Z,99586.31
2022-12-17T02:53:45.059Z,99592.47
2022-12-17T02:56:36.088Z,99591.22
2022-12-17T02:59:27.264Z,99586.63
2022-12-17T03:02:17.820Z,99588.56
2022-12-17T03:05:35.704Z,99597.38
2022-12-17T03:08:18.176Z,99602.56
2022-12-17T03:11:08.464Z,99606.69
2022-12-17T03:13:58.757Z,99600.81
2022-12-17T03:16:49.151Z,99609.69
2022-12-17T03:19:39.404Z,99611.94
2022-12-17T03:22:29.286Z,99620.19
2022-12-17T03:25:19.129Z,99618.34
2022-12-17T03:28:09.252Z,99625.19
2022-12-17T03:30:59.442Z,99629.13
2022-12-17T03:33:49.672Z,99631.78
2022-12-17T03:36:40.493Z,99632.63
2022-12-17T03:39:30.688Z,99637.72
2022-12-17T03:42:20.646Z,99645.50
2022-12-17T03:45:10.765Z,99647.09
2022-12-17T03:48:00.564Z,99657.00
2022-12-17T03:50:50.405Z,99651.81
2022-12-17T03:53:40.569Z,99648.41
2022-12-17T03:56:30.837Z,99655.25
2022-12-17T03:59:20.844Z,99655.66
2022-12-17T04:02:11.259Z,99652.41
2022-12-17T04:05:01.849Z,99659.34
2022-12-17T04:07:52.198Z,99665.44
2022-12-17T04:10:42.467Z,99664.94
2022-12-17T04:13:37.332Z,99671.16
2022-12-17T04:16:33.295Z,99675.56
2022-12-17T04:19:23.495Z,99684.16
2022-12-17T04:22:13.438Z,99678.84
2022-12-17T04:25:03.506Z,99686.59
2022-12-17T04:27:53.532Z,99696.00
2022-12-17T04:30:43.764Z,99706.47
2022-12-17T04:33:34.250Z,99708.81
2022-12-17T04:36:25.093Z,99711.88
2022-12-17T04:39:15.372Z,99719.75
2022-12-17T04:42:05.547Z,99721.19
2022-12-17T04:44:55.574Z,99726.28
2022-12-17T04:47:45.937Z,99716.59
2022-12-17T04:50:35.949Z,99729.59
2022-12-17T04:53:26.108Z,99728.63
2022-12-17T04:56:16.024Z,99729.34
2022-12-17T04:59:09.106Z,99733.94
2022-12-17T05:01:59.312Z,99744.81
2022-12-17T05:04:49.237Z,99744.72
2022-12-17T05:07:39.741Z,99750.22
2022-12-17T05:10:29.552Z,99749.47
2022-12-17T05:13:20.318Z,99751.88
2022-12-17T05:16:15.100Z,99760.41
2022-12-17T05:19:05.244Z,99764.59
2022-12-17T05:22:02.600Z,99767.00
2022-12-17T05:24:52.540Z,99776.59
2022-12-17T05:27:42.408Z,99777.69
2022-12-17T05:30:32.587Z,99782.28
2022-12-17T05:33:22.900Z,99790.88
2022-12-17T05:36:13.909Z,99789.13
2022-12-17T05:39:04.061Z,99796.66
2022-12-17T05:41:54.349Z,99797.88
2022-12-17T05:44:44.287Z,99796.22
2022-12-17T05:47:34.248Z,99800.41
2022-12-17T05:50:24.676Z,99804.50
2022-12-17T05:53:23.379Z,99795.88
2022-12-17T05:56:13.280Z,99808.31
2022-12-17T05:59:03.645Z,99811.28
2022-12-17T06:01:53.806Z,99818.38
2022-12-17T06:04:44.148Z,99820.88
2022-12-17T06:07:34.571Z,99823.63
2022-12-17T06:10:24.649Z,99825.06
2022-12-17T06:13:15.183Z,99837.00
2022-12-17T06:16:09.183Z,99848.19
2022-12-17T06:18:59.461Z,99842.88
2022-12-17T06:21:49.861Z,99845.47
2022-12-17T06:24:45.560Z,99851.47
2022-12-17T06:27:35.839Z,99856.66
2022-12-17T06:30:27.508Z,99863.19
2022-12-17T06:33:25.805Z,99862.56
2022-12-17T06:36:22.216Z,99861.66
2022-12-17T06:39:13.137Z,99867.53
2022-12-17T06:42:04.615Z,99872.03
2022-12-17T06:44:55.271Z,99868.38
2022-12-17T06:47:45.256Z,99869.50
2022-12-17T06:50:35.816Z,99874.78
2022-12-17T06:53:26.811Z,99879.84
2022-12-17T06:56:18.423Z,99878.94
2022-12-17T06:59:08.648Z,99888.56
2022-12-17T07:01:58.692Z,99889.53
2022-12-17T07:04:48.813Z,99901.41
2022-12-17T07:07:38.847Z,99897.38
2022-12-17T07:10:28.780Z,99905.91
2022-12-17T07:13:34.389Z,99907.59
2022-12-17T07:16:24.705Z,99915.97
2022-12-17T07:19:14.952Z,99920.16
2022-12-17T07:22:05.095Z,99921.59
2022-12-17T07:24:55.547Z,99923.44
2022-12-17T07:27:45.512Z,99924.25
2022-12-17T07:30:35.648Z,99936.84
2022-12-17T07:33:48.112Z,99934.25
2022-12-17T07:36:38.351Z,99939.19
2022-12-17T07:39:28.457Z,99937.56
2022-12-17T07:42:18.451Z,99950.44
2022-12-17T07:45:08.676Z,99952.97
2022-12-17T07:47:58.800Z,99959.50
2022-12-17T07:50:48.803Z,99963.16
2022-12-17T07:53:38.967Z,99965.63
2022-12-17T07:56:29.109Z,99975.03
2022-12-17T07:59:18.970Z,99981.69
2022-12-17T08:02:09.102Z,99974.50
2022-12-17T08:05:00.233Z,99979.53
2022-12-17T08:07:50.691Z,99984.31
2022-12-17T08:10:40.900Z,99990.47
2022-12-17T08:13:30.823Z,99993.91
2022-12-17T08:16:21.055Z,99990.41
2022-12-17T08:19:16.788Z,99999.94
2022-12-17T08:22:07.362Z,100004.72
2022-12-17T08:24:57.554Z,100004.41
2022-12-17T08:27:47.834Z,100014.28
2022-12-17T08:30:38.090Z,100016.06
2022-12-17T08:33:28.397Z,100017.66
2022-12-17T08:36:18.655Z,100014.88
2022-12-17T08:39:08.626Z,100029.28
2022-12-17T08:42:04.083Z,100027.31
2022-12-17T08:44:54.824Z,100036.75
2022-12-17T08:47:48.684Z,100042.25
2022-12-17T08:50:38.677Z,100044.06
2022-12-17T08:53:34.593Z,100048.19
2022-12-17T08:56:25.518Z,100045.53
2022-12-17T08:59:15.677Z,100052.38
2022-12-17T09:02:05.890Z,100056.50
2022-12-17T09:04:55.896Z,100050.78
2022-12-17T09:07:45.775Z,100060.25
2022-12-17T09:10:35.863Z,100055.81
2022-12-17T09:13:25.836Z,100055.06
2022-12-17T09:16:16.360Z,100046.94
2022-12-17T09:19:06.719Z,100055.19
2022-12-17T09:21:59.804Z,100055.47
2022-12-17T09:24:49.943Z,100060.91
2022-12-17T09:27:40.224Z,100068.19
2022-12-17T09:30:31.209Z,100065.09
2022-12-17T09:33:41.306Z,100059.25
2022-12-17T09:36:31.641Z,100070.72
2022-12-17T09:39:22.016Z,100072.91
2022-12-17T09:42:33.393Z,100070.94
2022-12-17T09:45:48.244Z,100075.84
2022-12-17T09:49:21.962Z,100072.41
2022-12-17T09:52:12.396Z,100069.38
2022-12-17T09:55:07.371Z,100074.03
2022-12-17T09:57:57.584Z,100083.06
2022-12-17T10:00:48.277Z,100083.03
2022-12-17T10:03:41.772Z,100083.88
2022-12-17T10:06:37.442Z,100092.91
2022-12-17T10:09:33.565Z,100089.19
2022-12-17T10:12:31.440Z,100091.59
2022-12-17T10:15:22.976Z,100097.25
2022-12-17T10:18:13.293Z,100099.06
2022-12-17T10:21:10.954Z,100102.25
2022-12-17T10:24:01.332Z,100103.69
2022-12-17T10:26:59.167Z,100110.41
2022-12-17T10:29:50.689Z,100108.66
2022-12-17T10:32:43.719Z,100112.59
2022-12-17T10:35:55.286Z,100111.25
2022-12-17T10:38:48.869Z,100109.09
2022-12-17T10:41:43.841Z,100118.56
2022-12-17T10:44:47.773Z,100120.81
2022-12-17T10:47:50.172Z,100114.41
2022-12-17T10:50:42.620Z,100126.44
2022-12-17T10:53:41.135Z,100126.53
2022-12-17T10:56:41.797Z,100131.66
2022-12-17T10:59:43.567Z,100135.28
2022-12-17T11:02:43.531Z,100138.06
2022-12-17T11:05:43.956Z,100139.28
2022-12-17T11:08:35.420Z,100138.56
2022-12-17T11:11:31.696Z,100156.22
2022-12-17T11:14:24.406Z,100161.09
2022-12-17T11:17:23.616Z,100156.47
2022-12-17T11:20:18.936Z,100156.16
2022-12-17T11:23:16.492Z,100165.78
2022-12-17T11:26:18.084Z,100161.25
2022-12-17T11:29:08.394Z,100157.59
2022-12-17T11:32:26.459Z,100157.34
2022-12-17T11:35:49.036Z,100159.56
2022-12-17T11:38:51.503Z,100166.75
2022-12-17T11:42:11.069Z,100166.16
2022-12-17T11:45:11.816Z,100170.53
2022-12-17T11:48:13.230Z,100171.66
2022-12-17T11:51:08.273Z,100168.22
2022-12-17T11:54:33.350Z,100177.69
2022-12-17T11:57:43.446Z,100175.69
2022-12-17T12:00:40.477Z,100171.56
2022-12-17T12:03:59.122Z,100174.72
2022-12-17T12:07:14.520Z,100168.72
2022-12-17T12:10:08.729Z,100169.53
2022-12-17T12:13:20.855Z,100171.47
2022-12-17T12:16:29.965Z,100172.25
2022-12-17T12:19:42.327Z,100172.56
2022-12-17T12:23:08.261Z,100172.59
2022-12-17T12:26:28.195Z,100167.84
2022-12-17T12:29:41.285Z,100173.22
2022-12-17T12:32:55.604Z,100173.63
2022-12-17T12:35:47.527Z,100180.53
2022-12-17T12:38:49.275Z,100177.69
2022-12-17T12:41:48.041Z,100180.84
2022-12-17T12:44:56.513Z,100189.59
2022-12-17T12:47:56.551Z,100196.03
2022-12-17T12:51:00.212Z,100200.94
2022-12-17T12:53:50.817Z,100195.00
2022-12-17T12:56:55.252Z,100201.06
2022-12-17T12:59:46.942Z,100195.00
2022-12-17T13:02:46.195Z,100202.47
2022-12-17T13:05:34.993Z,100192.97
2022-12-17T13:08:24.475Z,100203.47
2022-12-17T13:10:56.325Z,100199.84
2022-12-17T13:13:37.099Z,100212.03
2022-12-17T13:16:46.181Z,100218.28
2022-12-17T13:19:22.519Z,100211.28
2022-12-17T13:21:54.115Z,100215.19
2022-12-17T13:24:27.417Z,100216.69
2022-12-17T13:26:59.000Z,100212.03
2022-12-17T13:29:37.701Z,100220.94
2022-12-17T13:32:25.837Z,100219.56
2022-12-17T13:35:12.540Z,100226.25
2022-12-17T13:37:52.639Z,100225.78
2022-12-17T13:40:36.232Z,100233.59
2022-12-17T13:43:21.099Z,100236.53
2022-12-17T13:45:55.324Z,100237.25
2022-12-17T13:48:29.200Z,100236.34
2022-12-17T13:51:03.435Z,100240.44
2022-12-17T13:53:35.351Z,100243.22
2022-12-17T13:56:07.093Z,100242.09
2022-12-17T13:58:39.122Z,100248.28
2022-12-17T14:01:14.980Z,100264.00
2022-12-17T14:04:08.077Z,100268.34
2022-12-17T14:06:41.359Z,100266.09
2022-12-17T14:09:28.013Z,100266.28
2022-12-17T14:12:21.715Z,100271.16
2022-12-17T14:14:57.630Z,100270.50
2022-12-17T14:17:50.979Z,100271.09
2022-12-17T14:20:30.374Z,100275.78
2022-12-17T14:23:19.156Z,100285.81
2022-12-17T14:25:50.904Z,100294.00
2022-12-17T14:28:30.206Z,100295.84
2022-12-17T14:34:08.185Z,100308.19
2022-12-17T14:36:42.344Z,100304.84
2022-12-17T14:39:28.814Z,100316.31
2022-12-17T14:42:29.275Z,100322.03
2022-12-17T14:45:22.913Z,100317.41
2022-12-17T14:48:00.019Z,100324.47
2022-12-17T14:50:34.658Z,100338.31
2022-12-17T14:53:27.477Z,100335.81
2022-12-17T14:55:59.701Z,100339.47
2022-12-17T14:58:31.635Z,100338.03
2022-12-17T15:01:13.349Z,100338.31
2022-12-17T15:03:49.580Z,100340.38
2022-12-17T15:06:27.164Z,100341.56
2022-12-17T15:08:59.060Z,100348.84
2022-12-17T15:11:30.652Z,100353.75
2022-12-17T15:14:02.196Z,100354.91
2022-12-17T15:16:33.857Z,100362.13
2022-12-17T15:19:05.452Z,100366.66
2022-12-17T15:21:37.155Z,100372.91
2022-12-17T15:24:13.807Z,100368.78
2022-12-17T15:26:46.115Z,100369.03
2022-12-17T15:29:17.663Z,100381.31
2022-12-17T15:31:49.276Z,100373.94
2022-12-17T15:34:21.004Z,100388.81
2022-12-17T15:36:52.557Z,100380.19
2022-12-17T15:39:24.128Z,100390.88
2022-12-17T15:42:14.073Z,100393.69
2022-12-17T15:44:45.734Z,100389.47
2022-12-17T15:47:17.358Z,100389.03
2022-12-17T15:49:48.936Z,100398.66
2022-12-17T15:52:20.584Z,100404.00
2022-12-17T15:54:52.194Z,100398.94
2022-12-17T15:57:23.862Z,100410.25
2022-12-17T15:59:57.971Z,100400.88
2022-12-17T16:02:29.834Z,100394.84
2022-12-17T16:05:01.459Z,100402.69
2022-12-17T16:07:33.295Z,100412.00
2022-12-17T16:10:06.390Z,100415.38
2022-12-17T16:12:48.415Z,100405.75
2022-12-17T16:15:26.141Z,100423.03
2022-12-17T16:17:58.571Z,100416.75
2022-12-17T16:20:34.147Z,100417.59
2022-12-17T16:23:09.265Z,100417.44
2022-12-17T16:25:41.353Z,100412.19
2022-12-17T16:28:13.642Z,100419.97
2022-12-17T16:30:45.315Z,100408.59
2022-12-17T16:33:17.017Z,100412.78
2022-12-17T16:35:55.091Z,100417.75
2022-12-17T16:38:26.907Z,100419.28
2022-12-17T16:41:01.472Z,100419.06
2022-12-17T16:43:34.214Z,100422.44
2022-12-17T16:46:11.970Z,100426.63
2022-12-17T16:48:43.857Z,100428.97
2022-12-17T16:51:23.957Z,100430.59
2022-12-17T16:53:59.891Z,100434.72
2022-12-17T16:56:37.999Z,100428.59
2022-12-17T16:59:13.170Z,100429.91
2022-12-17T17:01:47.742Z,100430.22
2022-12-17T17:04:21.909Z,100423.09
2022-12-17T17:06:55.914Z,100424.63
2022-12-17T17:09:27.756Z,100438.94
2022-12-17T17:11:59.339Z,100434.66
2022-12-17T17:14:30.925Z,100433.81
2022-12-17T17:17:02.657Z,100450.22
2022-12-17T17:19:34.234Z,100450.56
2022-12-17T17:22:05.812Z,100455.63
2022-12-17T17:24:37.499Z,100458.84
2022-12-17T17:27:09.069Z,100467.19
2022-12-17T17:29:40.690Z,100469.47
2022-12-17T17:32:13.095Z,100473.72
2022-12-17T17:34:45.236Z,100482.50
2022-12-17T17:37:17.314Z,100488.59
2022-12-17T17:39:48.936Z,100483.56
2022-12-17T17:42:20.516Z,100482.78
2022-12-17T17:44:52.125Z,100486.97
2022-12-17T17:47:23.800Z,100489.66
2022-12-17T17:49:55.397Z,100484.84
2022-12-17T17:52:27.024Z,100495.56
2022-12-17T17:54:58.678Z,100505.19
2022-12-17T17:57:30.281Z,100502.16
2022-12-17T18:00:02.760Z,100499.50
2022-12-17T18:02:37.220Z,100505.81
2022-12-17T18:05:09.311Z,100509.44
2022-12-17T18:07:40.908Z,100506.31
2022-12-17T18:10:12.533Z,100504.34
2022-12-17T18:13:02.504Z,100503.97
2022-12-17T18:15:34.145Z,100504.25
2022-12-17T18:18:11.036Z,100513.88
2022-12-17T18:20:45.821Z,100505.94
2022-12-17T18:23:17.426Z,100510.22
2022-12-17T18:25:49.160Z,100513.53
2022-12-17T18:28:20.724Z,100520.25
2022-12-17T18:30:52.311Z,100522.06
2022-12-17T18:33:25.434Z,100527.34
2022-12-17T18:35:59.880Z,100534.22
2022-12-17T18:38:31.451Z,100536.69
2022-12-17T18:41:37.073Z,100542.72
2022-12-17T18:44:08.892Z,100542.16
2022-12-17T18:46:40.624Z,100545.59
2022-12-17T18:49:16.167Z,100545.50
2022-12-17T18:51:49.889Z,100551.56
2022-12-17T18:54:27.038Z,100569.22
2022-12-17T18:57:01.391Z,100563.13
2022-12-17T18:59:40.775Z,100560.38
2022-12-17T19:02:13.485Z,100575.94
2022-12-17T19:04:45.176Z,100574.34
2022-12-17T19:07:16.808Z,100580.50
2022-12-17T19:09:48.445Z,100581.59
2022-12-17T19:12:20.025Z,100586.00
2022-12-17T19:14:52.435Z,100588.97
2022-12-17T19:17:24.119Z,100591.63
2022-12-17T19:19:55.680Z,100585.00
2022-12-17T19:22:27.310Z,100591.56
2022-12-17T19:24:58.893Z,100590.91
2022-12-17T19:27:30.544Z,100591.81
2022-12-17T19:30:04.138Z,100591.97
2022-12-17T19:32:36.035Z,100588.69
2022-12-17T19:35:10.822Z,100594.94
2022-12-17T19:37:45.397Z,100606.28
2022-12-17T19:40:20.029Z,100606.84
2022-12-17T19:42:55.119Z,100600.59
2022-12-17T19:45:26.811Z,100599.09
2022-12-17T19:47:58.482Z,100604.44
2022-12-17T19:50:30.016Z,100608.91
2022-12-17T19:53:01.667Z,100613.50
2022-12-17T19:55:33.944Z,100616.28
2022-12-17T19:58:05.589Z,100608.63
2022-12-17T20:00:37.311Z,100621.69
2022-12-17T20:03:10.191Z,100626.22
2022-12-17T20:05:45.954Z,100627.22
2022-12-17T20:08:22.344Z,100622.34
2022-12-17T20:10:54.185Z,100640.81
2022-12-17T20:13:25.797Z,100634.19
2022-12-17T20:16:01.927Z,100634.41
2022-12-17T20:18:33.531Z,100635.47
2022-12-17T20:21:06.682Z,100638.22
2022-12-17T20:23:38.348Z,100636.72
2022-12-17T20:26:11.489Z,100629.97
2022-12-17T20:28:43.578Z,100643.00
2022-12-17T20:31:15.302Z,100647.44
2022-12-17T20:33:46.995Z,100648.50
2022-12-17T20:36:25.582Z,100655.56
2022-12-17T20:38:57.483Z,100666.03
2022-12-17T20:41:30.981Z,100660.19
2022-12-17T20:44:05.040Z,100665.56
2022-12-17T20:46:37.158Z,100670.06
2022-12-17T20:49:10.987Z,100665.78
2022-12-17T20:51:43.100Z,100662.44
2022-12-17T20:54:14.822Z,100672.84
2022-12-17T20:56:46.632Z,100672.91
2022-12-17T20:59:19.524Z,100670.44
2022-12-17T21:01:56.046Z,100678.28
2022-12-17T21:04:28.003Z,100679.50
2022-12-17T21:06:59.609Z,100679.69
2022-12-17T21:09:31.213Z,100682.47
2022-12-17T21:12:02.897Z,100681.81
2022-12-17T21:14:35.875Z,100683.72
2022-12-17T21:17:07.783Z,100691.50
2022-12-17T21:19:39.352Z,100687.31
2022-12-17T21:22:10.948Z,100692.56
2022-12-17T21:24:42.953Z,100690.94
2022-12-17T21:27:17.258Z,100701.34
2022-12-17T21:29:48.883Z,100701.53
2022-12-17T21:32:20.499Z,100706.03
2022-12-17T21:34:52.097Z,100705.50
2022-12-17T21:37:23.707Z,100709.97
2022-12-17T21:39:59.645Z,100713.59
2022-12-17T21:42:49.980Z,100719.75
2022-12-17T21:45:21.553Z,100718.06
2022-12-17T21:47:53.338Z,100722.56
2022-12-17T21:50:24.921Z,100714.91
2022-12-17T21:52:56.718Z,100726.09
2022-12-17T21:55:28.433Z,100714.94
2022-12-17T21:58:00.033Z,100723.56
2022-12-17T22:00:32.129Z,100721.94
2022-12-17T22:03:03.867Z,100722.13
2022-12-17T22:05:37.325Z,100720.53
2022-12-17T22:08:09.381Z,100730.16
2022-12-17T22:10:48.632Z,100732.09
2022-12-17T22:13:42.533Z,100734.72
2022-12-17T22:16:14.552Z,100734.03
2022-12-17T22:18:46.118Z,100741.88
2022-12-17T22:21:18.347Z,100745.41
2022-12-17T22:23:50.421Z,100738.66
2022-12-17T22:26:22.317Z,100741.25
2022-12-17T22:28:53.924Z,100744.72
2022-12-17T22:31:44.301Z,100744.84
2022-12-17T22:35:36.448Z,100748.47
2022-12-17T22:39:57.368Z,100751.34
2022-12-17T22:44:35.059Z,100751.47
2022-12-17T22:44:35.843Z,100751.53
2022-12-17T22:46:03.474Z,100750.00
2022-12-17T22:48:35.767Z,100753.44
2022-12-17T22:51:12.081Z,100748.31
2022-12-17T22:53:46.825Z,100754.31
2022-12-17T22:56:33.749Z,100759.59
2022-12-17T22:59:18.726Z,100766.66
2022-12-17T23:01:50.413Z,100765.03
2022-12-17T23:04:22.267Z,100765.94
2022-12-17T23:06:53.932Z,100760.78
2022-12-17T23:09:28.416Z,100767.63
2022-12-17T23:12:20.061Z,100769.38
2022-12-17T23:14:54.792Z,100767.81
2022-12-17T23:17:28.475Z,100761.91
2022-12-17T23:20:00.039Z,100773.97
2022-12-17T23:22:31.611Z,100774.06
2022-12-17T23:25:03.860Z,100776.69
2022-12-17T23:27:35.532Z,100780.19
2022-12-17T23:30:08.162Z,100771.66
2022-12-17T23:32:40.126Z,100780.34
2022-12-17T23:35:12.993Z,100773.63
2022-12-17T23:37:44.723Z,100779.69
2022-12-17T23:40:16.332Z,100786.59
2022-12-17T23:42:47.980Z,100794.38
2022-12-17T23:45:19.542Z,100790.16
2022-12-17T23:47:51.138Z,100789.34
2022-12-17T23:50:22.732Z,100796.28
2022-12-17T23:52:54.321Z,100800.66
2022-12-17T23:55:25.903Z,100802.47
2022-12-17T23:57:58.765Z,100804.19
